sensor_id;sensor_type;location;lat;lon;timestamp;P1;durP1;ratioP1;P2;durP2;ratioP2
59042;SDS011;44826;51.596;5.624;2023-06-10T00:00:39;6.57;;;5.53;;
59042;SDS011;44826;51.596;5.624;2023-06-10T00:03:06;6.30;;;5.70;;
59042;SDS011;44826;51.596;5.624;2023-06-10T00:05:32;5.80;;;5.20;;
59042;SDS011;44826;51.596;5.624;2023-06-10T00:07:57;5.72;;;5.10;;
59042;SDS011;44826;51.596;5.624;2023-06-10T00:10:23;6.32;;;5.40;;
59042;SDS011;44826;51.596;5.624;2023-06-10T00:12:49;7.00;;;5.40;;
59042;SDS011;44826;51.596;5.624;2023-06-10T00:15:14;6.75;;;5.32;;
59042;SDS011;44826;51.596;5.624;2023-06-10T00:17:40;6.55;;;5.18;;
59042;SDS011;44826;51.596;5.624;2023-06-10T00:20:08;7.45;;;5.20;;
59042;SDS011;44826;51.596;5.624;2023-06-10T00:22:36;7.22;;;5.10;;
59042;SDS011;44826;51.596;5.624;2023-06-10T00:25:02;8.18;;;4.93;;
59042;SDS011;44826;51.596;5.624;2023-06-10T00:27:28;6.63;;;5.30;;
59042;SDS011;44826;51.596;5.624;2023-06-10T00:29:59;6.55;;;5.20;;
59042;SDS011;44826;51.596;5.624;2023-06-10T00:32:26;11.38;;;5.15;;
59042;SDS011;44826;51.596;5.624;2023-06-10T00:34:51;8.23;;;5.07;;
59042;SDS011;44826;51.596;5.624;2023-06-10T00:37:16;6.30;;;5.15;;
59042;SDS011;44826;51.596;5.624;2023-06-10T00:39:42;9.23;;;5.45;;
59042;SDS011;44826;51.596;5.624;2023-06-10T00:42:07;6.85;;;5.28;;
59042;SDS011;44826;51.596;5.624;2023-06-10T00:44:33;7.05;;;5.50;;
59042;SDS011;44826;51.596;5.624;2023-06-10T00:46:58;6.68;;;5.53;;
59042;SDS011;44826;51.596;5.624;2023-06-10T00:49:23;7.15;;;5.47;;
59042;SDS011;44826;51.596;5.624;2023-06-10T00:51:49;5.60;;;5.00;;
59042;SDS011;44826;51.596;5.624;2023-06-10T00:54:16;6.55;;;5.38;;
59042;SDS011;44826;51.596;5.624;2023-06-10T00:56:42;6.20;;;5.18;;
59042;SDS011;44826;51.596;5.624;2023-06-10T00:59:08;7.43;;;5.65;;
59042;SDS011;44826;51.596;5.624;2023-06-10T01:01:33;8.93;;;5.63;;
59042;SDS011;44826;51.596;5.624;2023-06-10T01:03:59;6.88;;;6.15;;
59042;SDS011;44826;51.596;5.624;2023-06-10T01:06:36;9.70;;;5.60;;
59042;SDS011;44826;51.596;5.624;2023-06-10T01:12:12;6.85;;;5.63;;
59042;SDS011;44826;51.596;5.624;2023-06-10T01:14:46;6.80;;;5.53;;
59042;SDS011;44826;51.596;5.624;2023-06-10T01:17:13;6.93;;;5.78;;
59042;SDS011;44826;51.596;5.624;2023-06-10T01:19:41;6.80;;;5.97;;
59042;SDS011;44826;51.596;5.624;2023-06-10T01:22:08;7.63;;;6.13;;
59042;SDS011;44826;51.596;5.624;2023-06-10T01:24:35;7.85;;;5.78;;
59042;SDS011;44826;51.596;5.624;2023-06-10T01:27:01;7.50;;;6.53;;
59042;SDS011;44826;51.596;5.624;2023-06-10T01:29:33;7.20;;;5.82;;
59042;SDS011;44826;51.596;5.624;2023-06-10T01:32:09;6.82;;;6.13;;
59042;SDS011;44826;51.596;5.624;2023-06-10T01:34:37;6.28;;;5.65;;
59042;SDS011;44826;51.596;5.624;2023-06-10T01:37:07;6.95;;;5.50;;
59042;SDS011;44826;51.596;5.624;2023-06-10T01:39:34;9.35;;;6.72;;
59042;SDS011;44826;51.596;5.624;2023-06-10T01:42:00;6.93;;;6.22;;
59042;SDS011;44826;51.596;5.624;2023-06-10T01:44:27;8.32;;;6.50;;
59042;SDS011;44826;51.596;5.624;2023-06-10T01:46:52;7.70;;;6.30;;
59042;SDS011;44826;51.596;5.624;2023-06-10T01:49:17;9.38;;;6.25;;
59042;SDS011;44826;51.596;5.624;2023-06-10T01:51:43;6.95;;;6.13;;
59042;SDS011;44826;51.596;5.624;2023-06-10T01:54:08;8.40;;;6.43;;
59042;SDS011;44826;51.596;5.624;2023-06-10T01:56:33;7.72;;;6.05;;
59042;SDS011;44826;51.596;5.624;2023-06-10T01:58:59;7.53;;;6.65;;
59042;SDS011;44826;51.596;5.624;2023-06-10T02:01:25;8.30;;;6.10;;
59042;SDS011;44826;51.596;5.624;2023-06-10T02:03:50;7.93;;;6.57;;
59042;SDS011;44826;51.596;5.624;2023-06-10T02:06:16;9.02;;;7.07;;
59042;SDS011;44826;51.596;5.624;2023-06-10T02:08:41;8.05;;;6.80;;
59042;SDS011;44826;51.596;5.624;2023-06-10T02:11:06;7.75;;;6.47;;
59042;SDS011;44826;51.596;5.624;2023-06-10T02:13:32;8.07;;;6.97;;
59042;SDS011;44826;51.596;5.624;2023-06-10T02:15:57;10.88;;;7.20;;
59042;SDS011;44826;51.596;5.624;2023-06-10T02:18:23;7.40;;;6.57;;
59042;SDS011;44826;51.596;5.624;2023-06-10T02:20:48;9.52;;;7.10;;
59042;SDS011;44826;51.596;5.624;2023-06-10T02:23:14;7.18;;;6.47;;
59042;SDS011;44826;51.596;5.624;2023-06-10T02:25:39;8.55;;;7.18;;
59042;SDS011;44826;51.596;5.624;2023-06-10T02:28:05;11.00;;;7.35;;
59042;SDS011;44826;51.596;5.624;2023-06-10T02:30:30;8.50;;;7.22;;
59042;SDS011;44826;51.596;5.624;2023-06-10T02:32:56;9.40;;;7.30;;
59042;SDS011;44826;51.596;5.624;2023-06-10T02:35:21;7.90;;;6.82;;
59042;SDS011;44826;51.596;5.624;2023-06-10T02:37:49;9.23;;;6.82;;
59042;SDS011;44826;51.596;5.624;2023-06-10T02:40:14;7.68;;;6.65;;
59042;SDS011;44826;51.596;5.624;2023-06-10T02:42:40;8.63;;;6.88;;
59042;SDS011;44826;51.596;5.624;2023-06-10T02:45:05;8.45;;;7.60;;
59042;SDS011;44826;51.596;5.624;2023-06-10T02:47:31;8.85;;;6.95;;
59042;SDS011;44826;51.596;5.624;2023-06-10T02:49:56;9.80;;;7.43;;
59042;SDS011;44826;51.596;5.624;2023-06-10T02:52:22;16.35;;;8.82;;
59042;SDS011;44826;51.596;5.624;2023-06-10T02:54:47;10.77;;;8.07;;
59042;SDS011;44826;51.596;5.624;2023-06-10T02:57:13;10.40;;;7.05;;
59042;SDS011;44826;51.596;5.624;2023-06-10T02:59:39;12.82;;;7.82;;
59042;SDS011;44826;51.596;5.624;2023-06-10T03:02:05;8.32;;;7.03;;
59042;SDS011;44826;51.596;5.624;2023-06-10T03:04:30;8.52;;;7.47;;
59042;SDS011;44826;51.596;5.624;2023-06-10T03:06:56;8.27;;;7.40;;
59042;SDS011;44826;51.596;5.624;2023-06-10T03:09:21;9.35;;;7.60;;
59042;SDS011;44826;51.596;5.624;2023-06-10T03:11:46;9.35;;;7.65;;
59042;SDS011;44826;51.596;5.624;2023-06-10T03:14:12;9.35;;;7.53;;
59042;SDS011;44826;51.596;5.624;2023-06-10T03:16:37;11.02;;;7.72;;
59042;SDS011;44826;51.596;5.624;2023-06-10T03:19:05;9.65;;;8.00;;
59042;SDS011;44826;51.596;5.624;2023-06-10T03:21:31;9.05;;;7.68;;
59042;SDS011;44826;51.596;5.624;2023-06-10T03:23:56;8.45;;;7.55;;
59042;SDS011;44826;51.596;5.624;2023-06-10T03:26:21;9.43;;;7.53;;
59042;SDS011;44826;51.596;5.624;2023-06-10T03:28:47;8.95;;;7.55;;
59042;SDS011;44826;51.596;5.624;2023-06-10T03:31:12;10.50;;;8.23;;
59042;SDS011;44826;51.596;5.624;2023-06-10T03:33:38;9.15;;;7.80;;
59042;SDS011;44826;51.596;5.624;2023-06-10T03:36:04;9.30;;;8.18;;
59042;SDS011;44826;51.596;5.624;2023-06-10T03:38:29;8.60;;;7.35;;
59042;SDS011;44826;51.596;5.624;2023-06-10T03:40:54;8.35;;;7.28;;
59042;SDS011;44826;51.596;5.624;2023-06-10T03:43:20;9.10;;;7.38;;
59042;SDS011;44826;51.596;5.624;2023-06-10T03:45:47;8.32;;;7.43;;
59042;SDS011;44826;51.596;5.624;2023-06-10T03:48:14;9.93;;;7.57;;
59042;SDS011;44826;51.596;5.624;2023-06-10T03:50:39;9.65;;;7.22;;
59042;SDS011;44826;51.596;5.624;2023-06-10T03:53:05;10.60;;;7.15;;
59042;SDS011;44826;51.596;5.624;2023-06-10T03:55:30;8.65;;;7.30;;
59042;SDS011;44826;51.596;5.624;2023-06-10T03:57:56;7.57;;;6.50;;
59042;SDS011;44826;51.596;5.624;2023-06-10T04:00:21;8.02;;;7.10;;
59042;SDS011;44826;51.596;5.624;2023-06-10T04:02:47;7.93;;;7.10;;
59042;SDS011;44826;51.596;5.624;2023-06-10T04:05:15;8.65;;;7.30;;
59042;SDS011;44826;51.596;5.624;2023-06-10T04:07:41;11.10;;;7.03;;
59042;SDS011;44826;51.596;5.624;2023-06-10T04:10:07;9.13;;;7.35;;
59042;SDS011;44826;51.596;5.624;2023-06-10T04:12:34;8.32;;;6.63;;
59042;SDS011;44826;51.596;5.624;2023-06-10T04:15:00;8.52;;;6.40;;
59042;SDS011;44826;51.596;5.624;2023-06-10T04:17:25;8.15;;;6.93;;
59042;SDS011;44826;51.596;5.624;2023-06-10T04:19:51;7.63;;;6.82;;
59042;SDS011;44826;51.596;5.624;2023-06-10T04:22:17;9.07;;;7.88;;
59042;SDS011;44826;51.596;5.624;2023-06-10T04:24:42;8.55;;;6.95;;
59042;SDS011;44826;51.596;5.624;2023-06-10T04:27:08;9.73;;;6.75;;
59042;SDS011;44826;51.596;5.624;2023-06-10T04:29:33;7.90;;;6.93;;
59042;SDS011;44826;51.596;5.624;2023-06-10T04:31:59;9.05;;;6.30;;
59042;SDS011;44826;51.596;5.624;2023-06-10T04:34:25;7.68;;;6.47;;
59042;SDS011;44826;51.596;5.624;2023-06-10T04:36:50;8.02;;;6.70;;
59042;SDS011;44826;51.596;5.624;2023-06-10T04:39:16;8.05;;;7.00;;
59042;SDS011;44826;51.596;5.624;2023-06-10T04:41:42;7.75;;;6.43;;
59042;SDS011;44826;51.596;5.624;2023-06-10T04:44:07;8.80;;;6.85;;
59042;SDS011;44826;51.596;5.624;2023-06-10T04:46:32;8.93;;;6.38;;
59042;SDS011;44826;51.596;5.624;2023-06-10T04:48:58;7.82;;;6.45;;
59042;SDS011;44826;51.596;5.624;2023-06-10T04:51:23;7.90;;;6.40;;
59042;SDS011;44826;51.596;5.624;2023-06-10T04:53:48;8.52;;;6.28;;
59042;SDS011;44826;51.596;5.624;2023-06-10T04:56:13;8.25;;;6.80;;
59042;SDS011;44826;51.596;5.624;2023-06-10T04:58:40;7.82;;;6.10;;
59042;SDS011;44826;51.596;5.624;2023-06-10T05:01:05;9.02;;;6.47;;
59042;SDS011;44826;51.596;5.624;2023-06-10T05:03:31;9.10;;;6.50;;
59042;SDS011;44826;51.596;5.624;2023-06-10T05:05:56;9.30;;;6.68;;
59042;SDS011;44826;51.596;5.624;2023-06-10T05:08:21;8.38;;;6.47;;
59042;SDS011;44826;51.596;5.624;2023-06-10T05:10:46;8.40;;;6.50;;
59042;SDS011;44826;51.596;5.624;2023-06-10T05:13:12;10.25;;;6.60;;
59042;SDS011;44826;51.596;5.624;2023-06-10T05:15:37;7.93;;;6.50;;
59042;SDS011;44826;51.596;5.624;2023-06-10T05:18:02;8.13;;;6.43;;
59042;SDS011;44826;51.596;5.624;2023-06-10T05:20:28;8.07;;;6.43;;
59042;SDS011;44826;51.596;5.624;2023-06-10T05:22:54;8.52;;;6.07;;
59042;SDS011;44826;51.596;5.624;2023-06-10T05:25:19;8.07;;;6.50;;
59042;SDS011;44826;51.596;5.624;2023-06-10T05:27:44;7.78;;;6.10;;
59042;SDS011;44826;51.596;5.624;2023-06-10T05:30:10;12.00;;;6.43;;
59042;SDS011;44826;51.596;5.624;2023-06-10T05:32:36;7.07;;;5.95;;
59042;SDS011;44826;51.596;5.624;2023-06-10T05:35:01;9.73;;;6.32;;
59042;SDS011;44826;51.596;5.624;2023-06-10T05:37:28;8.05;;;6.15;;
59042;SDS011;44826;51.596;5.624;2023-06-10T05:39:54;12.68;;;6.70;;
59042;SDS011;44826;51.596;5.624;2023-06-10T05:42:19;7.68;;;5.97;;
59042;SDS011;44826;51.596;5.624;2023-06-10T05:44:45;7.40;;;5.65;;
59042;SDS011;44826;51.596;5.624;2023-06-10T05:47:10;7.68;;;5.90;;
59042;SDS011;44826;51.596;5.624;2023-06-10T05:49:35;8.10;;;6.30;;
59042;SDS011;44826;51.596;5.624;2023-06-10T05:52:00;9.10;;;6.15;;
59042;SDS011;44826;51.596;5.624;2023-06-10T05:54:26;9.60;;;6.15;;
59042;SDS011;44826;51.596;5.624;2023-06-10T05:56:51;9.63;;;5.78;;
59042;SDS011;44826;51.596;5.624;2023-06-10T05:59:17;7.38;;;5.88;;
59042;SDS011;44826;51.596;5.624;2023-06-10T06:01:42;8.55;;;6.28;;
59042;SDS011;44826;51.596;5.624;2023-06-10T06:04:07;10.32;;;5.93;;
59042;SDS011;44826;51.596;5.624;2023-06-10T06:06:33;8.88;;;6.05;;
59042;SDS011;44826;51.596;5.624;2023-06-10T06:08:58;8.00;;;5.90;;
59042;SDS011;44826;51.596;5.624;2023-06-10T06:11:23;9.57;;;6.10;;
59042;SDS011;44826;51.596;5.624;2023-06-10T06:13:50;8.70;;;5.53;;
59042;SDS011;44826;51.596;5.624;2023-06-10T06:16:16;7.18;;;5.82;;
59042;SDS011;44826;51.596;5.624;2023-06-10T06:18:41;13.23;;;6.13;;
59042;SDS011;44826;51.596;5.624;2023-06-10T06:21:07;9.50;;;5.97;;
59042;SDS011;44826;51.596;5.624;2023-06-10T06:23:33;8.07;;;5.88;;
59042;SDS011;44826;51.596;5.624;2023-06-10T06:25:58;8.65;;;6.07;;
59042;SDS011;44826;51.596;5.624;2023-06-10T06:28:23;7.68;;;5.93;;
59042;SDS011;44826;51.596;5.624;2023-06-10T06:30:53;8.55;;;6.00;;
59042;SDS011;44826;51.596;5.624;2023-06-10T06:33:19;7.03;;;5.43;;
59042;SDS011;44826;51.596;5.624;2023-06-10T06:35:44;7.43;;;5.60;;
59042;SDS011;44826;51.596;5.624;2023-06-10T06:38:09;8.73;;;5.38;;
59042;SDS011;44826;51.596;5.624;2023-06-10T06:40:35;8.20;;;5.75;;
59042;SDS011;44826;51.596;5.624;2023-06-10T06:43:00;7.55;;;5.90;;
59042;SDS011;44826;51.596;5.624;2023-06-10T06:45:25;7.50;;;5.25;;
59042;SDS011;44826;51.596;5.624;2023-06-10T06:47:50;7.72;;;5.15;;
59042;SDS011;44826;51.596;5.624;2023-06-10T06:50:16;6.57;;;5.38;;
59042;SDS011;44826;51.596;5.624;2023-06-10T06:52:41;8.43;;;5.75;;
59042;SDS011;44826;51.596;5.624;2023-06-10T06:55:07;7.28;;;5.25;;
59042;SDS011;44826;51.596;5.624;2023-06-10T06:57:32;8.68;;;5.45;;
59042;SDS011;44826;51.596;5.624;2023-06-10T06:59:57;10.25;;;5.55;;
59042;SDS011;44826;51.596;5.624;2023-06-10T07:02:23;8.07;;;5.68;;
59042;SDS011;44826;51.596;5.624;2023-06-10T07:04:48;6.18;;;4.90;;
59042;SDS011;44826;51.596;5.624;2023-06-10T07:07:14;6.55;;;5.43;;
59042;SDS011;44826;51.596;5.624;2023-06-10T07:09:40;8.57;;;5.25;;
59042;SDS011;44826;51.596;5.624;2023-06-10T07:12:05;7.78;;;5.60;;
59042;SDS011;44826;51.596;5.624;2023-06-10T07:14:31;8.10;;;5.22;;
59042;SDS011;44826;51.596;5.624;2023-06-10T07:16:56;7.75;;;5.35;;
59042;SDS011;44826;51.596;5.624;2023-06-10T07:19:21;10.68;;;5.30;;
59042;SDS011;44826;51.596;5.624;2023-06-10T07:21:47;10.85;;;5.70;;
59042;SDS011;44826;51.596;5.624;2023-06-10T07:24:12;6.75;;;5.30;;
59042;SDS011;44826;51.596;5.624;2023-06-10T07:26:38;7.63;;;5.20;;
59042;SDS011;44826;51.596;5.624;2023-06-10T07:29:03;7.50;;;5.22;;
59042;SDS011;44826;51.596;5.624;2023-06-10T07:31:28;6.78;;;4.55;;
59042;SDS011;44826;51.596;5.624;2023-06-10T07:33:53;8.30;;;5.28;;
59042;SDS011;44826;51.596;5.624;2023-06-10T07:36:19;8.85;;;5.20;;
59042;SDS011;44826;51.596;5.624;2023-06-10T07:38:44;7.25;;;4.97;;
59042;SDS011;44826;51.596;5.624;2023-06-10T07:41:09;6.78;;;4.70;;
59042;SDS011;44826;51.596;5.624;2023-06-10T07:43:39;9.05;;;5.10;;
59042;SDS011;44826;51.596;5.624;2023-06-10T07:46:04;9.85;;;4.90;;
59042;SDS011;44826;51.596;5.624;2023-06-10T07:48:30;8.70;;;4.60;;
59042;SDS011;44826;51.596;5.624;2023-06-10T07:50:56;6.40;;;4.82;;
59042;SDS011;44826;51.596;5.624;2023-06-10T07:53:21;6.80;;;4.57;;
59042;SDS011;44826;51.596;5.624;2023-06-10T07:55:46;7.03;;;5.28;;
59042;SDS011;44826;51.596;5.624;2023-06-10T07:58:11;7.20;;;4.90;;
59042;SDS011;44826;51.596;5.624;2023-06-10T08:00:37;8.70;;;4.97;;
59042;SDS011;44826;51.596;5.624;2023-06-10T08:03:02;7.80;;;5.15;;
59042;SDS011;44826;51.596;5.624;2023-06-10T08:05:27;7.68;;;4.75;;
59042;SDS011;44826;51.596;5.624;2023-06-10T08:07:53;5.57;;;4.47;;
59042;SDS011;44826;51.596;5.624;2023-06-10T08:10:18;6.68;;;4.97;;
59042;SDS011;44826;51.596;5.624;2023-06-10T08:12:43;7.18;;;4.78;;
59042;SDS011;44826;51.596;5.624;2023-06-10T08:15:08;8.32;;;4.90;;
59042;SDS011;44826;51.596;5.624;2023-06-10T08:17:34;7.55;;;4.65;;
59042;SDS011;44826;51.596;5.624;2023-06-10T08:20:00;6.45;;;4.78;;
59042;SDS011;44826;51.596;5.624;2023-06-10T08:22:26;8.30;;;4.47;;
59042;SDS011;44826;51.596;5.624;2023-06-10T08:24:51;7.68;;;4.70;;
59042;SDS011;44826;51.596;5.624;2023-06-10T08:27:16;6.10;;;4.82;;
59042;SDS011;44826;51.596;5.624;2023-06-10T08:29:41;6.68;;;4.80;;
59042;SDS011;44826;51.596;5.624;2023-06-10T08:32:07;6.78;;;4.70;;
59042;SDS011;44826;51.596;5.624;2023-06-10T08:34:35;7.43;;;4.80;;
59042;SDS011;44826;51.596;5.624;2023-06-10T08:37:02;6.53;;;4.70;;
59042;SDS011;44826;51.596;5.624;2023-06-10T08:39:28;6.50;;;4.60;;
59042;SDS011;44826;51.596;5.624;2023-06-10T08:44:28;7.43;;;5.00;;
59042;SDS011;44826;51.596;5.624;2023-06-10T08:46:58;7.80;;;4.60;;
59042;SDS011;44826;51.596;5.624;2023-06-10T08:49:25;6.77;;;4.40;;
59042;SDS011;44826;51.596;5.624;2023-06-10T08:51:53;7.13;;;4.32;;
59042;SDS011;44826;51.596;5.624;2023-06-10T08:54:24;7.85;;;4.32;;
59042;SDS011;44826;51.596;5.624;2023-06-10T08:56:52;7.75;;;4.60;;
59042;SDS011;44826;51.596;5.624;2023-06-10T08:59:20;8.25;;;4.72;;
59042;SDS011;44826;51.596;5.624;2023-06-10T09:01:46;6.07;;;4.35;;
59042;SDS011;44826;51.596;5.624;2023-06-10T09:04:12;5.97;;;4.10;;
59042;SDS011;44826;51.596;5.624;2023-06-10T09:06:38;6.63;;;4.60;;
59042;SDS011;44826;51.596;5.624;2023-06-10T09:09:05;8.80;;;4.78;;
59042;SDS011;44826;51.596;5.624;2023-06-10T09:11:31;8.05;;;4.20;;
59042;SDS011;44826;51.596;5.624;2023-06-10T09:13:57;7.82;;;4.40;;
59042;SDS011;44826;51.596;5.624;2023-06-10T09:16:23;6.05;;;4.40;;
59042;SDS011;44826;51.596;5.624;2023-06-10T09:18:49;9.07;;;4.53;;
59042;SDS011;44826;51.596;5.624;2023-06-10T09:21:19;6.38;;;4.53;;
59042;SDS011;44826;51.596;5.624;2023-06-10T09:23:46;6.65;;;4.05;;
59042;SDS011;44826;51.596;5.624;2023-06-10T09:26:12;8.95;;;4.47;;
59042;SDS011;44826;51.596;5.624;2023-06-10T09:28:37;5.47;;;4.22;;
59042;SDS011;44826;51.596;5.624;2023-06-10T09:31:04;5.30;;;4.30;;
59042;SDS011;44826;51.596;5.624;2023-06-10T09:33:30;7.50;;;4.22;;
59042;SDS011;44826;51.596;5.624;2023-06-10T09:35:56;5.65;;;4.28;;
59042;SDS011;44826;51.596;5.624;2023-06-10T09:38:28;6.68;;;4.50;;
59042;SDS011;44826;51.596;5.624;2023-06-10T09:40:55;5.43;;;4.15;;
59042;SDS011;44826;51.596;5.624;2023-06-10T09:43:20;8.05;;;4.60;;
59042;SDS011;44826;51.596;5.624;2023-06-10T09:45:49;5.93;;;4.43;;
59042;SDS011;44826;51.596;5.624;2023-06-10T09:48:18;6.32;;;4.18;;
59042;SDS011;44826;51.596;5.624;2023-06-10T09:50:43;5.60;;;4.10;;
59042;SDS011;44826;51.596;5.624;2023-06-10T09:53:10;7.30;;;4.65;;
59042;SDS011;44826;51.596;5.624;2023-06-10T09:55:39;5.57;;;4.32;;
59042;SDS011;44826;51.596;5.624;2023-06-10T09:58:05;9.23;;;4.55;;
59042;SDS011;44826;51.596;5.624;2023-06-10T10:00:36;5.75;;;4.25;;
59042;SDS011;44826;51.596;5.624;2023-06-10T10:03:01;5.88;;;4.43;;
59042;SDS011;44826;51.596;5.624;2023-06-10T10:05:27;6.60;;;4.40;;
59042;SDS011;44826;51.596;5.624;2023-06-10T10:07:52;8.23;;;4.70;;
59042;SDS011;44826;51.596;5.624;2023-06-10T10:10:19;5.70;;;4.53;;
59042;SDS011;44826;51.596;5.624;2023-06-10T10:12:46;7.70;;;4.55;;
59042;SDS011;44826;51.596;5.624;2023-06-10T10:15:12;7.28;;;4.80;;
59042;SDS011;44826;51.596;5.624;2023-06-10T10:17:44;6.88;;;4.50;;
59042;SDS011;44826;51.596;5.624;2023-06-10T10:20:14;6.75;;;4.13;;
59042;SDS011;44826;51.596;5.624;2023-06-10T10:22:43;6.13;;;4.50;;
59042;SDS011;44826;51.596;5.624;2023-06-10T10:25:11;7.90;;;4.72;;
59042;SDS011;44826;51.596;5.624;2023-06-10T10:27:44;7.17;;;4.77;;
59042;SDS011;44826;51.596;5.624;2023-06-10T10:30:14;7.85;;;4.63;;
59042;SDS011;44826;51.596;5.624;2023-06-10T10:35:21;6.28;;;4.45;;
59042;SDS011;44826;51.596;5.624;2023-06-10T10:37:48;5.63;;;4.45;;
59042;SDS011;44826;51.596;5.624;2023-06-10T10:40:16;7.43;;;4.70;;
59042;SDS011;44826;51.596;5.624;2023-06-10T10:42:42;5.55;;;4.25;;
59042;SDS011;44826;51.596;5.624;2023-06-10T10:45:08;6.88;;;4.70;;
59042;SDS011;44826;51.596;5.624;2023-06-10T10:47:34;6.30;;;4.72;;
59042;SDS011;44826;51.596;5.624;2023-06-10T10:50:03;6.07;;;4.50;;
59042;SDS011;44826;51.596;5.624;2023-06-10T10:52:46;5.93;;;4.57;;
59042;SDS011;44826;51.596;5.624;2023-06-10T10:55:17;5.05;;;4.45;;
59042;SDS011;44826;51.596;5.624;2023-06-10T10:57:43;8.23;;;4.90;;
59042;SDS011;44826;51.596;5.624;2023-06-10T11:00:08;6.22;;;4.57;;
59042;SDS011;44826;51.596;5.624;2023-06-10T11:02:41;9.05;;;4.70;;
59042;SDS011;44826;51.596;5.624;2023-06-10T11:05:14;5.88;;;4.70;;
59042;SDS011;44826;51.596;5.624;2023-06-10T11:07:40;6.22;;;4.55;;
59042;SDS011;44826;51.596;5.624;2023-06-10T11:10:17;7.18;;;4.13;;
59042;SDS011;44826;51.596;5.624;2023-06-10T11:15:13;7.93;;;4.65;;
59042;SDS011;44826;51.596;5.624;2023-06-10T11:18:05;6.70;;;4.82;;
59042;SDS011;44826;51.596;5.624;2023-06-10T11:28:39;6.35;;;4.40;;
59042;SDS011;44826;51.596;5.624;2023-06-10T11:33:54;7.65;;;4.68;;
59042;SDS011;44826;51.596;5.624;2023-06-10T11:36:24;6.70;;;4.85;;
59042;SDS011;44826;51.596;5.624;2023-06-10T11:38:54;7.55;;;4.40;;
59042;SDS011;44826;51.596;5.624;2023-06-10T11:41:23;6.22;;;4.60;;
59042;SDS011;44826;51.596;5.624;2023-06-10T11:43:50;5.63;;;4.47;;
59042;SDS011;44826;51.596;5.624;2023-06-10T11:46:15;6.00;;;4.10;;
59042;SDS011;44826;51.596;5.624;2023-06-10T11:48:53;5.30;;;4.60;;
59042;SDS011;44826;51.596;5.624;2023-06-10T11:51:26;5.78;;;4.35;;
59042;SDS011;44826;51.596;5.624;2023-06-10T11:53:53;8.40;;;4.43;;
59042;SDS011;44826;51.596;5.624;2023-06-10T11:56:22;6.03;;;4.38;;
59042;SDS011;44826;51.596;5.624;2023-06-10T11:58:57;6.10;;;4.20;;
59042;SDS011;44826;51.596;5.624;2023-06-10T12:01:31;6.43;;;4.20;;
59042;SDS011;44826;51.596;5.624;2023-06-10T12:06:50;6.03;;;4.38;;
59042;SDS011;44826;51.596;5.624;2023-06-10T12:09:21;6.53;;;4.60;;
59042;SDS011;44826;51.596;5.624;2023-06-10T12:12:00;5.03;;;4.28;;
59042;SDS011;44826;51.596;5.624;2023-06-10T12:17:22;6.22;;;4.38;;
59042;SDS011;44826;51.596;5.624;2023-06-10T12:19:48;7.40;;;4.25;;
59042;SDS011;44826;51.596;5.624;2023-06-10T12:22:14;7.25;;;4.18;;
59042;SDS011;44826;51.596;5.624;2023-06-10T12:24:46;6.35;;;4.22;;
59042;SDS011;44826;51.596;5.624;2023-06-10T12:27:24;5.38;;;4.30;;
59042;SDS011;44826;51.596;5.624;2023-06-10T12:29:52;5.15;;;4.30;;
59042;SDS011;44826;51.596;5.624;2023-06-10T12:32:21;5.30;;;4.47;;
59042;SDS011;44826;51.596;5.624;2023-06-10T12:34:54;5.43;;;4.25;;
59042;SDS011;44826;51.596;5.624;2023-06-10T12:37:28;7.20;;;4.65;;
59042;SDS011;44826;51.596;5.624;2023-06-10T12:39:53;5.68;;;4.50;;
59042;SDS011;44826;51.596;5.624;2023-06-10T12:42:21;5.57;;;4.20;;
59042;SDS011;44826;51.596;5.624;2023-06-10T12:44:47;6.78;;;4.40;;
59042;SDS011;44826;51.596;5.624;2023-06-10T12:47:18;6.78;;;4.20;;
59042;SDS011;44826;51.596;5.624;2023-06-10T12:49:44;5.38;;;4.47;;
59042;SDS011;44826;51.596;5.624;2023-06-10T12:52:09;5.93;;;4.03;;
59042;SDS011;44826;51.596;5.624;2023-06-10T12:54:34;4.90;;;4.32;;
59042;SDS011;44826;51.596;5.624;2023-06-10T12:56:59;5.43;;;4.20;;
59042;SDS011;44826;51.596;5.624;2023-06-10T12:59:26;5.43;;;4.15;;
59042;SDS011;44826;51.596;5.624;2023-06-10T13:01:52;6.07;;;4.47;;
59042;SDS011;44826;51.596;5.624;2023-06-10T13:04:18;7.22;;;4.80;;
59042;SDS011;44826;51.596;5.624;2023-06-10T13:06:44;6.75;;;4.32;;
59042;SDS011;44826;51.596;5.624;2023-06-10T13:09:11;6.90;;;4.20;;
59042;SDS011;44826;51.596;5.624;2023-06-10T13:11:37;5.90;;;4.22;;
59042;SDS011;44826;51.596;5.624;2023-06-10T13:14:03;6.95;;;4.30;;
59042;SDS011;44826;51.596;5.624;2023-06-10T13:16:30;5.68;;;4.30;;
59042;SDS011;44826;51.596;5.624;2023-06-10T13:18:56;4.53;;;4.05;;
59042;SDS011;44826;51.596;5.624;2023-06-10T13:21:22;6.32;;;4.32;;
59042;SDS011;44826;51.596;5.624;2023-06-10T13:23:47;5.97;;;4.47;;
59042;SDS011;44826;51.596;5.624;2023-06-10T13:26:13;5.65;;;4.03;;
59042;SDS011;44826;51.596;5.624;2023-06-10T13:28:45;5.43;;;4.30;;
59042;SDS011;44826;51.596;5.624;2023-06-10T13:31:10;6.30;;;4.30;;
59042;SDS011;44826;51.596;5.624;2023-06-10T13:33:36;5.38;;;4.28;;
59042;SDS011;44826;51.596;5.624;2023-06-10T13:36:01;7.30;;;4.18;;
59042;SDS011;44826;51.596;5.624;2023-06-10T13:38:26;5.00;;;4.40;;
59042;SDS011;44826;51.596;5.624;2023-06-10T13:40:51;4.75;;;4.15;;
59042;SDS011;44826;51.596;5.624;2023-06-10T13:43:17;6.13;;;4.47;;
59042;SDS011;44826;51.596;5.624;2023-06-10T13:45:42;5.68;;;4.45;;
59042;SDS011;44826;51.596;5.624;2023-06-10T13:48:07;5.63;;;4.40;;
59042;SDS011;44826;51.596;5.624;2023-06-10T13:50:33;7.57;;;4.40;;
59042;SDS011;44826;51.596;5.624;2023-06-10T13:52:58;7.10;;;4.10;;
59042;SDS011;44826;51.596;5.624;2023-06-10T13:55:24;4.60;;;4.03;;
59042;SDS011;44826;51.596;5.624;2023-06-10T13:57:49;5.00;;;4.20;;
59042;SDS011;44826;51.596;5.624;2023-06-10T14:00:15;6.07;;;4.03;;
59042;SDS011;44826;51.596;5.624;2023-06-10T14:02:41;5.22;;;4.22;;
59042;SDS011;44826;51.596;5.624;2023-06-10T14:05:06;4.97;;;3.90;;
59042;SDS011;44826;51.596;5.624;2023-06-10T14:07:33;6.25;;;4.28;;
59042;SDS011;44826;51.596;5.624;2023-06-10T14:09:58;5.05;;;4.28;;
59042;SDS011;44826;51.596;5.624;2023-06-10T14:12:24;5.75;;;4.50;;
59042;SDS011;44826;51.596;5.624;2023-06-10T14:14:49;6.18;;;4.30;;
59042;SDS011;44826;51.596;5.624;2023-06-10T14:17:15;5.82;;;4.60;;
59042;SDS011;44826;51.596;5.624;2023-06-10T14:19:40;4.95;;;4.30;;
59042;SDS011;44826;51.596;5.624;2023-06-10T14:22:05;6.72;;;4.40;;
59042;SDS011;44826;51.596;5.624;2023-06-10T14:24:32;5.20;;;4.40;;
59042;SDS011;44826;51.596;5.624;2023-06-10T14:26:57;5.93;;;4.03;;
59042;SDS011;44826;51.596;5.624;2023-06-10T14:29:23;5.57;;;4.20;;
59042;SDS011;44826;51.596;5.624;2023-06-10T14:31:49;5.75;;;4.10;;
59042;SDS011;44826;51.596;5.624;2023-06-10T14:34:14;4.65;;;3.97;;
59042;SDS011;44826;51.596;5.624;2023-06-10T14:36:39;7.30;;;4.20;;
59042;SDS011;44826;51.596;5.624;2023-06-10T14:39:05;5.25;;;4.35;;
59042;SDS011;44826;51.596;5.624;2023-06-10T14:41:30;5.88;;;4.30;;
59042;SDS011;44826;51.596;5.624;2023-06-10T14:43:56;6.03;;;4.50;;
59042;SDS011;44826;51.596;5.624;2023-06-10T14:46:21;5.00;;;4.38;;
59042;SDS011;44826;51.596;5.624;2023-06-10T14:48:46;5.25;;;4.20;;
59042;SDS011;44826;51.596;5.624;2023-06-10T14:51:12;7.68;;;4.40;;
59042;SDS011;44826;51.596;5.624;2023-06-10T14:53:37;8.70;;;4.30;;
59042;SDS011;44826;51.596;5.624;2023-06-10T14:56:02;5.07;;;3.95;;
59042;SDS011;44826;51.596;5.624;2023-06-10T14:58:28;5.75;;;4.50;;
59042;SDS011;44826;51.596;5.624;2023-06-10T15:00:53;5.68;;;4.18;;
59042;SDS011;44826;51.596;5.624;2023-06-10T15:03:18;6.65;;;4.18;;
59042;SDS011;44826;51.596;5.624;2023-06-10T15:05:43;5.93;;;4.40;;
59042;SDS011;44826;51.596;5.624;2023-06-10T15:08:09;5.80;;;4.38;;
59042;SDS011;44826;51.596;5.624;2023-06-10T15:10:34;5.53;;;4.63;;